createdAt,value
2022-11-22T17:03:33.776Z,12.30
2022-11-22T17:06:01.051Z,12.00
2022-11-22T17:08:28.435Z,11.50
2022-11-22T17:10:56.545Z,11.70
2022-11-22T17:13:25.981Z,11.60
2022-11-22T17:15:55.090Z,11.60
2022-11-22T17:18:23.025Z,11.60
2022-11-22T17:20:50.552Z,11.60
2022-11-22T17:23:27.463Z,12.00
2022-11-22T17:25:54.878Z,12.30
2022-11-22T17:28:22.260Z,12.40
2022-11-22T17:30:49.571Z,12.40
2022-11-22T17:33:16.882Z,12.50
2022-11-22T17:35:44.213Z,12.50
2022-11-22T17:38:12.306Z,12.50
2022-11-22T17:40:39.699Z,12.60
2022-11-22T17:43:07.065Z,12.60
2022-11-22T17:45:42.572Z,12.50
2022-11-22T17:48:11.854Z,12.50
2022-11-22T17:50:40.026Z,12.50
2022-11-22T17:53:07.608Z,12.50
2022-11-22T17:55:48.403Z,12.60
2022-11-22T17:58:22.485Z,12.60
2022-11-22T18:00:49.929Z,12.50
2022-11-22T18:03:17.455Z,12.60
2022-11-22T18:05:44.904Z,12.60
2022-11-22T18:08:12.301Z,12.60
2022-11-22T18:15:58.603Z,13.50
2022-11-22T18:18:55.160Z,12.60
2022-11-22T18:21:17.764Z,12.60
2022-11-22T18:23:45.509Z,12.60
2022-11-22T18:34:36.060Z,12.60
2022-11-22T18:37:04.528Z,12.60
2022-11-22T18:39:35.852Z,12.60
2022-11-22T18:42:05.819Z,12.60
2022-11-22T18:44:33.636Z,12.60
2022-11-22T18:47:01.064Z,12.60
2022-11-22T18:49:28.980Z,12.60
2022-11-22T18:51:56.601Z,12.60
2022-11-22T18:54:24.188Z,12.60
2022-11-22T18:56:51.801Z,12.60
2022-11-22T18:59:19.552Z,12.60
2022-11-22T19:01:47.041Z,12.70
2022-11-22T19:04:15.280Z,12.70
2022-11-22T19:06:43.196Z,12.70
2022-11-22T19:09:11.308Z,12.60
2022-11-22T19:11:38.817Z,12.50
2022-11-22T19:14:06.550Z,12.40
2022-11-22T19:16:34.107Z,12.80
2022-11-22T19:19:01.539Z,12.50
2022-11-22T19:21:29.838Z,12.40
2022-11-22T19:23:57.631Z,12.50
2022-11-22T19:26:27.000Z,12.50
2022-11-22T19:28:56.339Z,12.50
2022-11-22T19:31:27.672Z,12.60
2022-11-22T19:33:55.411Z,12.50
2022-11-22T19:36:30.844Z,12.50
2022-11-22T19:39:01.214Z,12.50
2022-11-22T19:41:28.561Z,12.50
2022-11-22T19:43:56.569Z,12.50
2022-11-22T19:46:24.684Z,12.50
2022-11-22T19:48:53.304Z,12.50
2022-11-22T19:51:21.333Z,12.50
2022-11-22T19:53:53.360Z,12.60
2022-11-22T19:56:21.500Z,12.60
2022-11-22T19:58:54.091Z,12.60
2022-11-22T20:01:22.872Z,12.50
2022-11-22T20:03:57.126Z,12.60
2022-11-22T20:06:25.046Z,12.60
2022-11-22T20:08:52.405Z,12.60
2022-11-22T20:11:21.255Z,12.60
2022-11-22T20:13:50.275Z,12.60
2022-11-22T20:16:21.944Z,12.60
2022-11-22T20:18:56.870Z,12.60
2022-11-22T20:21:25.019Z,12.60
2022-11-22T20:23:53.103Z,12.60
2022-11-22T20:26:21.593Z,12.60
2022-11-22T20:28:58.113Z,12.60
2022-11-22T20:31:27.575Z,12.40
2022-11-22T20:33:55.663Z,12.70
2022-11-22T20:36:25.834Z,12.70
2022-11-22T20:38:53.656Z,12.70
2022-11-22T20:41:23.789Z,12.70
2022-11-22T20:43:51.911Z,12.70
2022-11-22T20:46:22.990Z,12.60
2022-11-22T20:48:52.745Z,12.60
2022-11-22T20:51:25.580Z,12.50
2022-11-22T20:53:53.265Z,12.50
2022-11-22T20:56:21.247Z,12.50
2022-11-22T20:58:49.099Z,12.50
2022-11-22T21:01:19.290Z,12.50
2022-11-22T21:03:47.014Z,12.50
2022-11-22T21:06:15.973Z,12.60
2022-11-22T21:08:45.752Z,12.60
2022-11-22T21:11:15.845Z,12.50
2022-11-22T21:13:44.502Z,12.60
2022-11-22T21:16:23.695Z,12.50
2022-11-22T21:18:53.473Z,12.60
2022-11-22T21:21:24.647Z,12.50
2022-11-22T21:23:54.069Z,12.50
2022-11-22T21:26:22.868Z,12.50
2022-11-22T21:28:50.734Z,12.50
2022-11-22T21:31:18.772Z,12.50
2022-11-22T21:33:46.358Z,12.50
2022-11-22T21:36:14.229Z,12.50
2022-11-22T21:38:41.796Z,12.50
2022-11-22T21:44:00.934Z,12.50
2022-11-22T21:46:28.272Z,12.50
2022-11-22T21:48:55.953Z,12.50
2022-11-22T21:51:26.162Z,12.50
2022-11-22T21:54:01.170Z,12.50
2022-11-22T21:56:29.215Z,12.50
2022-11-22T21:58:56.777Z,12.50
2022-11-22T22:01:25.056Z,12.50
2022-11-22T22:03:53.039Z,12.50
2022-11-22T22:06:20.842Z,12.50
2022-11-22T22:08:48.342Z,12.50
2022-11-22T22:11:15.762Z,12.50
2022-11-22T22:13:43.315Z,12.50
2022-11-22T22:16:15.784Z,12.50
2022-11-22T22:18:43.705Z,12.50
2022-11-22T22:21:12.909Z,12.50
2022-11-22T22:23:41.439Z,12.50
2022-11-22T22:26:14.539Z,12.50
2022-11-22T22:28:42.317Z,12.50
2022-11-22T22:31:23.786Z,12.50
2022-11-22T22:33:54.417Z,12.50
2022-11-22T22:36:22.452Z,12.50
2022-11-22T22:38:49.686Z,12.50
2022-11-22T22:41:17.913Z,12.50
2022-11-22T22:43:47.560Z,12.50
2022-11-22T22:46:24.723Z,12.40
2022-11-22T22:48:54.782Z,12.50
2022-11-22T22:51:32.834Z,12.50
2022-11-22T22:54:01.122Z,12.40
2022-11-22T22:56:30.226Z,12.40
2022-11-22T22:59:00.607Z,12.40
2022-11-22T23:01:30.316Z,12.40
2022-11-22T23:03:59.539Z,12.50
2022-11-22T23:06:29.194Z,12.40
2022-11-22T23:08:57.391Z,12.40
2022-11-22T23:11:46.849Z,12.40
2022-11-22T23:14:16.924Z,12.40
2022-11-22T23:16:44.280Z,12.40
2022-11-22T23:19:11.693Z,12.40
2022-11-22T23:21:40.144Z,12.40
2022-11-22T23:24:08.464Z,12.40
2022-11-22T23:26:36.078Z,12.50
2022-11-22T23:29:04.045Z,12.40
2022-11-22T23:31:31.889Z,12.40
2022-11-22T23:34:02.662Z,12.40
2022-11-22T23:36:30.265Z,12.40
2022-11-22T23:38:57.658Z,12.40
2022-11-22T23:41:25.538Z,12.40
2022-11-22T23:43:56.886Z,12.40
2022-11-22T23:46:27.499Z,12.40
2022-11-22T23:48:57.066Z,12.40
2022-11-22T23:51:25.234Z,12.40
2022-11-22T23:54:03.916Z,12.40
2022-11-22T23:56:33.129Z,12.40
2022-11-22T23:59:01.117Z,12.30
